sensor_id;sensor_type;location;lat;lon;timestamp;P1;durP1;ratioP1;P2;durP2;ratioP2
44078;SDS011;29744;49.078;12.878;2023-07-02T00:03:18;1.25;;;0.80;;
44078;SDS011;29744;49.078;12.878;2023-07-02T00:08:22;1.50;;;1.00;;
44078;SDS011;29744;49.078;12.878;2023-07-02T00:13:22;1.77;;;0.90;;
44078;SDS011;29744;49.078;12.878;2023-07-02T00:18:23;1.77;;;1.00;;
44078;SDS011;29744;49.078;12.878;2023-07-02T00:23:23;1.63;;;0.90;;
44078;SDS011;29744;49.078;12.878;2023-07-02T00:28:23;1.25;;;0.90;;
44078;SDS011;29744;49.078;12.878;2023-07-02T00:33:24;1.52;;;0.88;;
44078;SDS011;29744;49.078;12.878;2023-07-02T00:38:24;1.70;;;1.00;;
44078;SDS011;29744;49.078;12.878;2023-07-02T00:43:24;1.30;;;0.77;;
44078;SDS011;29744;49.078;12.878;2023-07-02T00:48:25;1.17;;;0.80;;
44078;SDS011;29744;49.078;12.878;2023-07-02T00:53:25;1.42;;;0.90;;
44078;SDS011;29744;49.078;12.878;2023-07-02T00:58:25;0.93;;;0.70;;
44078;SDS011;29744;49.078;12.878;2023-07-02T01:03:26;1.48;;;0.90;;
44078;SDS011;29744;49.078;12.878;2023-07-02T01:08:26;1.77;;;1.00;;
44078;SDS011;29744;49.078;12.878;2023-07-02T01:13:26;1.33;;;0.80;;
44078;SDS011;29744;49.078;12.878;2023-07-02T01:18:27;1.55;;;0.90;;
44078;SDS011;29744;49.078;12.878;2023-07-02T01:23:27;1.60;;;0.90;;
44078;SDS011;29744;49.078;12.878;2023-07-02T01:28:34;1.65;;;0.90;;
44078;SDS011;29744;49.078;12.878;2023-07-02T01:33:38;1.65;;;0.90;;
44078;SDS011;29744;49.078;12.878;2023-07-02T01:38:39;1.00;;;0.73;;
44078;SDS011;29744;49.078;12.878;2023-07-02T01:43:39;1.10;;;0.80;;
44078;SDS011;29744;49.078;12.878;2023-07-02T01:48:39;1.05;;;0.70;;
44078;SDS011;29744;49.078;12.878;2023-07-02T01:53:39;0.70;;;0.55;;
44078;SDS011;29744;49.078;12.878;2023-07-02T01:58:40;1.40;;;0.80;;
44078;SDS011;29744;49.078;12.878;2023-07-02T02:03:40;1.17;;;0.70;;
44078;SDS011;29744;49.078;12.878;2023-07-02T02:08:40;1.65;;;0.90;;
44078;SDS011;29744;49.078;12.878;2023-07-02T02:13:40;1.38;;;0.88;;
44078;SDS011;29744;49.078;12.878;2023-07-02T02:18:41;1.27;;;0.75;;
44078;SDS011;29744;49.078;12.878;2023-07-02T02:23:41;1.40;;;0.80;;
44078;SDS011;29744;49.078;12.878;2023-07-02T02:28:42;1.30;;;0.70;;
44078;SDS011;29744;49.078;12.878;2023-07-02T02:33:43;0.80;;;0.60;;
44078;SDS011;29744;49.078;12.878;2023-07-02T02:38:43;1.38;;;0.77;;
44078;SDS011;29744;49.078;12.878;2023-07-02T02:43:44;1.13;;;0.80;;
44078;SDS011;29744;49.078;12.878;2023-07-02T02:48:44;0.98;;;0.65;;
44078;SDS011;29744;49.078;12.878;2023-07-02T02:53:44;0.85;;;0.60;;
44078;SDS011;29744;49.078;12.878;2023-07-02T02:58:44;1.17;;;0.70;;
44078;SDS011;29744;49.078;12.878;2023-07-02T03:03:45;1.23;;;0.70;;
44078;SDS011;29744;49.078;12.878;2023-07-02T03:08:45;1.38;;;0.88;;
44078;SDS011;29744;49.078;12.878;2023-07-02T03:13:45;0.75;;;0.60;;
44078;SDS011;29744;49.078;12.878;2023-07-02T03:18:45;1.25;;;0.80;;
44078;SDS011;29744;49.078;12.878;2023-07-02T03:23:46;1.30;;;0.70;;
44078;SDS011;29744;49.078;12.878;2023-07-02T03:28:46;1.20;;;0.77;;
44078;SDS011;29744;49.078;12.878;2023-07-02T03:33:46;0.85;;;0.70;;
44078;SDS011;29744;49.078;12.878;2023-07-02T03:38:46;1.30;;;0.80;;
44078;SDS011;29744;49.078;12.878;2023-07-02T03:43:47;1.67;;;0.90;;
44078;SDS011;29744;49.078;12.878;2023-07-02T03:48:47;1.38;;;0.75;;
44078;SDS011;29744;49.078;12.878;2023-07-02T03:53:48;0.90;;;0.60;;
44078;SDS011;29744;49.078;12.878;2023-07-02T03:58:48;1.17;;;0.80;;
44078;SDS011;29744;49.078;12.878;2023-07-02T04:03:49;1.50;;;0.90;;
44078;SDS011;29744;49.078;12.878;2023-07-02T04:08:50;0.95;;;0.65;;
44078;SDS011;29744;49.078;12.878;2023-07-02T04:13:50;0.85;;;0.60;;
44078;SDS011;29744;49.078;12.878;2023-07-02T04:18:51;1.05;;;0.70;;
44078;SDS011;29744;49.078;12.878;2023-07-02T04:23:51;1.20;;;0.70;;
44078;SDS011;29744;49.078;12.878;2023-07-02T04:28:51;1.05;;;0.65;;
44078;SDS011;29744;49.078;12.878;2023-07-02T04:33:53;1.33;;;0.73;;
44078;SDS011;29744;49.078;12.878;2023-07-02T04:38:53;1.17;;;0.70;;
44078;SDS011;29744;49.078;12.878;2023-07-02T04:43:53;1.30;;;0.70;;
44078;SDS011;29744;49.078;12.878;2023-07-02T04:48:54;0.88;;;0.70;;
44078;SDS011;29744;49.078;12.878;2023-07-02T04:53:54;0.70;;;0.50;;
44078;SDS011;29744;49.078;12.878;2023-07-02T04:58:54;0.77;;;0.60;;
44078;SDS011;29744;49.078;12.878;2023-07-02T05:03:54;1.15;;;0.80;;
44078;SDS011;29744;49.078;12.878;2023-07-02T05:08:55;0.88;;;0.60;;
44078;SDS011;29744;49.078;12.878;2023-07-02T05:13:55;0.93;;;0.60;;
44078;SDS011;29744;49.078;12.878;2023-07-02T05:18:55;0.85;;;0.63;;
44078;SDS011;29744;49.078;12.878;2023-07-02T05:23:55;1.15;;;0.70;;
44078;SDS011;29744;49.078;12.878;2023-07-02T05:28:56;0.63;;;0.50;;
44078;SDS011;29744;49.078;12.878;2023-07-02T05:33:56;1.13;;;0.70;;
44078;SDS011;29744;49.078;12.878;2023-07-02T05:38:56;1.42;;;0.70;;
44078;SDS011;29744;49.078;12.878;2023-07-02T05:43:57;1.00;;;0.50;;
44078;SDS011;29744;49.078;12.878;2023-07-02T05:48:58;1.17;;;0.77;;
44078;SDS011;29744;49.078;12.878;2023-07-02T05:53:59;1.23;;;0.70;;
44078;SDS011;29744;49.078;12.878;2023-07-02T05:59:00;1.38;;;0.70;;
44078;SDS011;29744;49.078;12.878;2023-07-02T06:04:00;1.38;;;0.70;;
44078;SDS011;29744;49.078;12.878;2023-07-02T06:09:00;0.95;;;0.60;;
44078;SDS011;29744;49.078;12.878;2023-07-02T06:14:01;0.95;;;0.60;;
44078;SDS011;29744;49.078;12.878;2023-07-02T06:19:01;0.75;;;0.60;;
44078;SDS011;29744;49.078;12.878;2023-07-02T06:24:01;0.60;;;0.50;;
44078;SDS011;29744;49.078;12.878;2023-07-02T06:29:02;1.05;;;0.60;;
44078;SDS011;29744;49.078;12.878;2023-07-02T06:34:02;0.43;;;0.43;;
44078;SDS011;29744;49.078;12.878;2023-07-02T06:39:02;1.13;;;0.73;;
44078;SDS011;29744;49.078;12.878;2023-07-02T06:44:03;0.73;;;0.57;;
44078;SDS011;29744;49.078;12.878;2023-07-02T06:49:03;0.75;;;0.60;;
44078;SDS011;29744;49.078;12.878;2023-07-02T06:54:04;1.08;;;0.70;;
44078;SDS011;29744;49.078;12.878;2023-07-02T06:59:04;1.05;;;0.70;;
44078;SDS011;29744;49.078;12.878;2023-07-02T07:04:05;1.02;;;0.70;;
44078;SDS011;29744;49.078;12.878;2023-07-02T07:09:05;0.75;;;0.60;;
44078;SDS011;29744;49.078;12.878;2023-07-02T07:14:05;0.60;;;0.50;;
44078;SDS011;29744;49.078;12.878;2023-07-02T07:19:06;0.65;;;0.50;;
44078;SDS011;29744;49.078;12.878;2023-07-02T07:24:07;0.80;;;0.50;;
44078;SDS011;29744;49.078;12.878;2023-07-02T07:29:07;0.45;;;0.45;;
44078;SDS011;29744;49.078;12.878;2023-07-02T07:34:08;1.08;;;0.70;;
44078;SDS011;29744;49.078;12.878;2023-07-02T07:39:09;1.05;;;0.60;;
44078;SDS011;29744;49.078;12.878;2023-07-02T07:44:09;0.98;;;0.60;;
44078;SDS011;29744;49.078;12.878;2023-07-02T07:49:10;0.90;;;0.55;;
44078;SDS011;29744;49.078;12.878;2023-07-02T07:54:12;0.75;;;0.57;;
44078;SDS011;29744;49.078;12.878;2023-07-02T07:59:12;1.25;;;0.70;;
44078;SDS011;29744;49.078;12.878;2023-07-02T08:04:14;0.70;;;0.60;;
44078;SDS011;29744;49.078;12.878;2023-07-02T08:09:15;0.50;;;0.50;;
44078;SDS011;29744;49.078;12.878;2023-07-02T08:14:16;0.77;;;0.50;;
44078;SDS011;29744;49.078;12.878;2023-07-02T08:19:17;1.02;;;0.50;;
44078;SDS011;29744;49.078;12.878;2023-07-02T08:24:17;1.05;;;0.60;;
44078;SDS011;29744;49.078;12.878;2023-07-02T08:29:17;0.85;;;0.52;;
44078;SDS011;29744;49.078;12.878;2023-07-02T08:34:18;0.77;;;0.50;;
44078;SDS011;29744;49.078;12.878;2023-07-02T08:39:18;0.93;;;0.60;;
44078;SDS011;29744;49.078;12.878;2023-07-02T08:44:21;0.57;;;0.52;;
44078;SDS011;29744;49.078;12.878;2023-07-02T08:49:22;0.52;;;0.47;;
44078;SDS011;29744;49.078;12.878;2023-07-02T08:54:23;0.57;;;0.50;;
44078;SDS011;29744;49.078;12.878;2023-07-02T08:59:23;0.85;;;0.50;;
44078;SDS011;29744;49.078;12.878;2023-07-02T09:04:24;0.82;;;0.50;;
44078;SDS011;29744;49.078;12.878;2023-07-02T09:09:25;0.88;;;0.60;;
44078;SDS011;29744;49.078;12.878;2023-07-02T09:14:26;0.98;;;0.63;;
44078;SDS011;29744;49.078;12.878;2023-07-02T09:19:27;0.80;;;0.50;;
44078;SDS011;29744;49.078;12.878;2023-07-02T09:24:31;1.33;;;0.70;;
44078;SDS011;29744;49.078;12.878;2023-07-02T09:29:32;0.60;;;0.50;;
44078;SDS011;29744;49.078;12.878;2023-07-02T09:34:34;0.68;;;0.45;;
44078;SDS011;29744;49.078;12.878;2023-07-02T09:39:36;0.40;;;0.40;;
44078;SDS011;29744;49.078;12.878;2023-07-02T09:44:38;1.05;;;0.60;;
44078;SDS011;29744;49.078;12.878;2023-07-02T09:49:49;0.90;;;0.60;;
44078;SDS011;29744;49.078;12.878;2023-07-02T09:54:52;0.85;;;0.65;;
44078;SDS011;29744;49.078;12.878;2023-07-02T09:59:52;0.77;;;0.57;;
44078;SDS011;29744;49.078;12.878;2023-07-02T10:04:53;0.90;;;0.60;;
44078;SDS011;29744;49.078;12.878;2023-07-02T10:09:55;0.90;;;0.60;;
44078;SDS011;29744;49.078;12.878;2023-07-02T10:14:56;1.02;;;0.63;;
44078;SDS011;29744;49.078;12.878;2023-07-02T10:19:58;0.73;;;0.50;;
44078;SDS011;29744;49.078;12.878;2023-07-02T10:25:07;0.68;;;0.40;;
44078;SDS011;29744;49.078;12.878;2023-07-02T10:30:08;1.25;;;0.60;;
44078;SDS011;29744;49.078;12.878;2023-07-02T10:35:13;0.70;;;0.50;;
44078;SDS011;29744;49.078;12.878;2023-07-02T10:40:15;0.52;;;0.50;;
44078;SDS011;29744;49.078;12.878;2023-07-02T10:45:15;0.98;;;0.60;;
44078;SDS011;29744;49.078;12.878;2023-07-02T10:50:17;1.10;;;0.60;;
44078;SDS011;29744;49.078;12.878;2023-07-02T10:55:19;0.85;;;0.60;;
44078;SDS011;29744;49.078;12.878;2023-07-02T11:00:20;0.98;;;0.57;;
44078;SDS011;29744;49.078;12.878;2023-07-02T11:05:20;0.50;;;0.40;;
44078;SDS011;29744;49.078;12.878;2023-07-02T11:10:21;0.80;;;0.50;;
44078;SDS011;29744;49.078;12.878;2023-07-02T11:15:21;0.83;;;0.60;;
44078;SDS011;29744;49.078;12.878;2023-07-02T11:20:21;0.82;;;0.60;;
44078;SDS011;29744;49.078;12.878;2023-07-02T11:25:22;0.82;;;0.52;;
44078;SDS011;29744;49.078;12.878;2023-07-02T11:30:22;0.77;;;0.57;;
44078;SDS011;29744;49.078;12.878;2023-07-02T11:35:33;1.05;;;0.60;;
44078;SDS011;29744;49.078;12.878;2023-07-02T11:40:35;1.00;;;0.63;;
44078;SDS011;29744;49.078;12.878;2023-07-02T11:45:35;1.02;;;0.60;;
44078;SDS011;29744;49.078;12.878;2023-07-02T11:50:35;0.88;;;0.70;;
44078;SDS011;29744;49.078;12.878;2023-07-02T11:55:36;0.80;;;0.50;;
44078;SDS011;29744;49.078;12.878;2023-07-02T12:00:36;0.80;;;0.52;;
44078;SDS011;29744;49.078;12.878;2023-07-02T12:05:36;0.80;;;0.52;;
44078;SDS011;29744;49.078;12.878;2023-07-02T12:10:37;1.00;;;0.60;;
44078;SDS011;29744;49.078;12.878;2023-07-02T12:15:37;0.60;;;0.50;;
44078;SDS011;29744;49.078;12.878;2023-07-02T12:20:39;0.88;;;0.55;;
44078;SDS011;29744;49.078;12.878;2023-07-02T12:25:40;0.70;;;0.50;;
44078;SDS011;29744;49.078;12.878;2023-07-02T12:30:40;1.10;;;0.60;;
44078;SDS011;29744;49.078;12.878;2023-07-02T12:35:40;1.03;;;0.60;;
44078;SDS011;29744;49.078;12.878;2023-07-02T12:40:40;0.88;;;0.50;;
44078;SDS011;29744;49.078;12.878;2023-07-02T12:45:41;0.70;;;0.57;;
44078;SDS011;29744;49.078;12.878;2023-07-02T12:50:41;1.20;;;0.70;;
44078;SDS011;29744;49.078;12.878;2023-07-02T12:55:41;0.85;;;0.50;;
44078;SDS011;29744;49.078;12.878;2023-07-02T13:00:42;0.47;;;0.47;;
44078;SDS011;29744;49.078;12.878;2023-07-02T13:05:42;1.05;;;0.50;;
44078;SDS011;29744;49.078;12.878;2023-07-02T13:10:42;1.02;;;0.70;;
44078;SDS011;29744;49.078;12.878;2023-07-02T13:15:43;0.60;;;0.50;;
44078;SDS011;29744;49.078;12.878;2023-07-02T13:20:44;1.00;;;0.70;;
44078;SDS011;29744;49.078;12.878;2023-07-02T13:25:44;0.70;;;0.60;;
44078;SDS011;29744;49.078;12.878;2023-07-02T13:30:44;0.82;;;0.50;;
44078;SDS011;29744;49.078;12.878;2023-07-02T13:35:44;0.88;;;0.57;;
44078;SDS011;29744;49.078;12.878;2023-07-02T13:40:45;1.25;;;0.70;;
44078;SDS011;29744;49.078;12.878;2023-07-02T13:45:46;0.80;;;0.60;;
44078;SDS011;29744;49.078;12.878;2023-07-02T13:50:46;0.95;;;0.65;;
44078;SDS011;29744;49.078;12.878;2023-07-02T13:55:46;0.82;;;0.57;;
44078;SDS011;29744;49.078;12.878;2023-07-02T14:00:46;0.75;;;0.60;;
44078;SDS011;29744;49.078;12.878;2023-07-02T14:05:47;0.80;;;0.60;;
44078;SDS011;29744;49.078;12.878;2023-07-02T14:10:47;1.63;;;0.70;;
44078;SDS011;29744;49.078;12.878;2023-07-02T14:15:47;1.60;;;0.80;;
44078;SDS011;29744;49.078;12.878;2023-07-02T14:20:50;1.70;;;0.80;;
44078;SDS011;29744;49.078;12.878;2023-07-02T14:25:50;1.98;;;0.90;;
44078;SDS011;29744;49.078;12.878;2023-07-02T14:30:55;1.42;;;0.68;;
44078;SDS011;29744;49.078;12.878;2023-07-02T14:40:57;1.40;;;0.75;;
44078;SDS011;29744;49.078;12.878;2023-07-02T14:45:58;1.35;;;0.70;;
44078;SDS011;29744;49.078;12.878;2023-07-02T14:51:01;2.20;;;0.88;;
44078;SDS011;29744;49.078;12.878;2023-07-02T14:56:02;1.55;;;0.80;;
44078;SDS011;29744;49.078;12.878;2023-07-02T15:01:03;1.42;;;0.85;;
44078;SDS011;29744;49.078;12.878;2023-07-02T15:06:07;2.00;;;1.00;;
44078;SDS011;29744;49.078;12.878;2023-07-02T15:11:12;1.05;;;0.90;;
44078;SDS011;29744;49.078;12.878;2023-07-02T15:16:14;2.13;;;1.00;;
44078;SDS011;29744;49.078;12.878;2023-07-02T15:21:14;1.50;;;1.00;;
44078;SDS011;29744;49.078;12.878;2023-07-02T15:26:16;2.38;;;1.08;;
44078;SDS011;29744;49.078;12.878;2023-07-02T15:31:16;2.30;;;1.10;;
44078;SDS011;29744;49.078;12.878;2023-07-02T15:36:16;2.17;;;1.00;;
44078;SDS011;29744;49.078;12.878;2023-07-02T15:41:18;2.58;;;1.23;;
44078;SDS011;29744;49.078;12.878;2023-07-02T15:46:22;2.25;;;1.35;;
44078;SDS011;29744;49.078;12.878;2023-07-02T15:51:22;1.92;;;1.13;;
44078;SDS011;29744;49.078;12.878;2023-07-02T15:56:25;2.08;;;1.00;;
44078;SDS011;29744;49.078;12.878;2023-07-02T16:01:26;2.50;;;1.10;;
44078;SDS011;29744;49.078;12.878;2023-07-02T16:06:27;2.45;;;1.25;;
44078;SDS011;29744;49.078;12.878;2023-07-02T16:11:34;2.85;;;1.48;;
44078;SDS011;29744;49.078;12.878;2023-07-02T16:16:39;2.60;;;1.30;;
44078;SDS011;29744;49.078;12.878;2023-07-02T16:21:41;3.10;;;1.67;;
44078;SDS011;29744;49.078;12.878;2023-07-02T16:26:42;3.75;;;1.70;;
44078;SDS011;29744;49.078;12.878;2023-07-02T16:31:47;2.55;;;1.33;;
44078;SDS011;29744;49.078;12.878;2023-07-02T16:36:48;3.05;;;1.50;;
44078;SDS011;29744;49.078;12.878;2023-07-02T16:41:48;2.85;;;1.40;;
44078;SDS011;29744;49.078;12.878;2023-07-02T16:46:50;2.83;;;1.40;;
44078;SDS011;29744;49.078;12.878;2023-07-02T16:51:53;2.90;;;1.52;;
44078;SDS011;29744;49.078;12.878;2023-07-02T16:56:56;3.03;;;1.67;;
44078;SDS011;29744;49.078;12.878;2023-07-02T17:01:58;2.85;;;1.58;;
44078;SDS011;29744;49.078;12.878;2023-07-02T17:06:59;2.60;;;1.50;;
44078;SDS011;29744;49.078;12.878;2023-07-02T17:12:01;2.72;;;1.48;;
44078;SDS011;29744;49.078;12.878;2023-07-02T17:17:06;2.83;;;1.50;;
44078;SDS011;29744;49.078;12.878;2023-07-02T17:22:10;3.15;;;1.60;;
44078;SDS011;29744;49.078;12.878;2023-07-02T17:27:17;2.88;;;1.60;;
44078;SDS011;29744;49.078;12.878;2023-07-02T17:32:19;3.95;;;1.88;;
44078;SDS011;29744;49.078;12.878;2023-07-02T17:37:19;3.45;;;1.88;;
44078;SDS011;29744;49.078;12.878;2023-07-02T17:42:20;3.97;;;2.13;;
44078;SDS011;29744;49.078;12.878;2023-07-02T17:47:20;6.05;;;2.95;;
44078;SDS011;29744;49.078;12.878;2023-07-02T17:52:21;7.97;;;3.00;;
44078;SDS011;29744;49.078;12.878;2023-07-02T17:57:21;6.53;;;3.10;;
44078;SDS011;29744;49.078;12.878;2023-07-02T18:02:22;5.80;;;3.58;;
44078;SDS011;29744;49.078;12.878;2023-07-02T18:07:22;6.45;;;3.35;;
44078;SDS011;29744;49.078;12.878;2023-07-02T18:12:24;6.20;;;3.40;;
44078;SDS011;29744;49.078;12.878;2023-07-02T18:17:24;6.15;;;3.65;;
44078;SDS011;29744;49.078;12.878;2023-07-02T18:22:25;7.97;;;4.00;;
44078;SDS011;29744;49.078;12.878;2023-07-02T18:27:25;8.05;;;4.40;;
44078;SDS011;29744;49.078;12.878;2023-07-02T18:32:25;6.32;;;3.95;;
44078;SDS011;29744;49.078;12.878;2023-07-02T18:37:29;7.18;;;3.90;;
44078;SDS011;29744;49.078;12.878;2023-07-02T18:42:30;7.57;;;4.53;;
44078;SDS011;29744;49.078;12.878;2023-07-02T18:47:30;7.80;;;4.43;;
44078;SDS011;29744;49.078;12.878;2023-07-02T18:52:30;6.73;;;4.33;;
44078;SDS011;29744;49.078;12.878;2023-07-02T18:57:31;9.95;;;4.57;;
44078;SDS011;29744;49.078;12.878;2023-07-02T19:02:31;10.63;;;4.47;;
44078;SDS011;29744;49.078;12.878;2023-07-02T19:07:34;6.97;;;3.97;;
44078;SDS011;29744;49.078;12.878;2023-07-02T19:12:35;6.93;;;4.00;;
44078;SDS011;29744;49.078;12.878;2023-07-02T19:17:35;8.57;;;4.32;;
44078;SDS011;29744;49.078;12.878;2023-07-02T19:22:35;8.05;;;3.92;;
44078;SDS011;29744;49.078;12.878;2023-07-02T19:27:36;7.10;;;3.80;;
44078;SDS011;29744;49.078;12.878;2023-07-02T19:32:37;8.43;;;4.15;;
44078;SDS011;29744;49.078;12.878;2023-07-02T19:37:38;8.85;;;4.18;;
44078;SDS011;29744;49.078;12.878;2023-07-02T19:42:38;6.63;;;3.95;;
44078;SDS011;29744;49.078;12.878;2023-07-02T19:47:38;6.93;;;3.90;;
44078;SDS011;29744;49.078;12.878;2023-07-02T19:52:39;8.57;;;4.47;;
44078;SDS011;29744;49.078;12.878;2023-07-02T19:57:39;6.10;;;3.92;;
44078;SDS011;29744;49.078;12.878;2023-07-02T20:02:39;7.82;;;3.97;;
44078;SDS011;29744;49.078;12.878;2023-07-02T20:07:40;7.55;;;3.70;;
44078;SDS011;29744;49.078;12.878;2023-07-02T20:12:41;8.57;;;4.13;;
44078;SDS011;29744;49.078;12.878;2023-07-02T20:17:41;6.50;;;3.67;;
44078;SDS011;29744;49.078;12.878;2023-07-02T20:22:41;6.13;;;4.03;;
44078;SDS011;29744;49.078;12.878;2023-07-02T20:27:44;6.38;;;3.58;;
44078;SDS011;29744;49.078;12.878;2023-07-02T20:32:47;6.55;;;3.70;;
44078;SDS011;29744;49.078;12.878;2023-07-02T20:37:50;6.20;;;3.67;;
44078;SDS011;29744;49.078;12.878;2023-07-02T20:42:51;6.35;;;3.83;;
44078;SDS011;29744;49.078;12.878;2023-07-02T20:47:52;5.68;;;3.50;;
44078;SDS011;29744;49.078;12.878;2023-07-02T20:52:53;5.47;;;3.70;;
44078;SDS011;29744;49.078;12.878;2023-07-02T20:57:53;5.82;;;3.50;;
44078;SDS011;29744;49.078;12.878;2023-07-02T21:02:53;6.22;;;3.70;;
44078;SDS011;29744;49.078;12.878;2023-07-02T21:07:54;5.80;;;3.47;;
44078;SDS011;29744;49.078;12.878;2023-07-02T21:12:55;7.38;;;4.22;;
44078;SDS011;29744;49.078;12.878;2023-07-02T21:17:55;5.60;;;3.70;;
44078;SDS011;29744;49.078;12.878;2023-07-02T21:22:56;6.25;;;3.90;;
44078;SDS011;29744;49.078;12.878;2023-07-02T21:27:56;6.30;;;3.65;;
44078;SDS011;29744;49.078;12.878;2023-07-02T21:32:56;5.95;;;3.70;;
44078;SDS011;29744;49.078;12.878;2023-07-02T21:37:57;6.90;;;3.70;;
44078;SDS011;29744;49.078;12.878;2023-07-02T21:42:57;5.65;;;3.35;;
44078;SDS011;29744;49.078;12.878;2023-07-02T21:47:57;5.15;;;3.33;;
44078;SDS011;29744;49.078;12.878;2023-07-02T21:52:57;5.80;;;3.53;;
44078;SDS011;29744;49.078;12.878;2023-07-02T21:57:58;5.93;;;3.60;;
44078;SDS011;29744;49.078;12.878;2023-07-02T22:02:59;5.03;;;3.28;;
44078;SDS011;29744;49.078;12.878;2023-07-02T22:08:00;6.00;;;3.78;;
44078;SDS011;29744;49.078;12.878;2023-07-02T22:13:02;6.85;;;3.78;;
44078;SDS011;29744;49.078;12.878;2023-07-02T22:18:04;6.53;;;3.60;;
44078;SDS011;29744;49.078;12.878;2023-07-02T22:23:04;5.53;;;3.37;;
44078;SDS011;29744;49.078;12.878;2023-07-02T22:28:04;6.18;;;3.53;;
44078;SDS011;29744;49.078;12.878;2023-07-02T22:33:05;5.30;;;3.20;;
44078;SDS011;29744;49.078;12.878;2023-07-02T22:38:05;5.60;;;3.57;;
44078;SDS011;29744;49.078;12.878;2023-07-02T22:43:05;5.57;;;3.22;;
44078;SDS011;29744;49.078;12.878;2023-07-02T22:48:06;5.53;;;3.45;;
44078;SDS011;29744;49.078;12.878;2023-07-02T22:53:06;6.25;;;3.75;;
44078;SDS011;29744;49.078;12.878;2023-07-02T22:58:06;5.35;;;3.50;;
44078;SDS011;29744;49.078;12.878;2023-07-02T23:03:07;6.07;;;3.53;;
44078;SDS011;29744;49.078;12.878;2023-07-02T23:08:07;6.85;;;3.92;;
44078;SDS011;29744;49.078;12.878;2023-07-02T23:13:07;5.95;;;3.47;;
44078;SDS011;29744;49.078;12.878;2023-07-02T23:18:08;6.22;;;3.85;;
44078;SDS011;29744;49.078;12.878;2023-07-02T23:23:09;5.10;;;3.20;;
44078;SDS011;29744;49.078;12.878;2023-07-02T23:28:09;6.28;;;3.35;;
44078;SDS011;29744;49.078;12.878;2023-07-02T23:33:10;5.90;;;3.63;;
44078;SDS011;29744;49.078;12.878;2023-07-02T23:38:10;5.97;;;3.47;;
44078;SDS011;29744;49.078;12.878;2023-07-02T23:43:10;5.13;;;3.17;;
44078;SDS011;29744;49.078;12.878;2023-07-02T23:48:11;5.40;;;3.45;;
44078;SDS011;29744;49.078;12.878;2023-07-02T23:53:11;6.40;;;3.80;;
44078;SDS011;29744;49.078;12.878;2023-07-02T23:58:11;6.45;;;4.05;;
